sensor_id;sensor_type;location;lat;lon;timestamp;temperature;humidity
3770;DHT22;1900;48.890;9.190;2022-07-23T00:01:00;31.10;45.80
3770;DHT22;1900;48.890;9.190;2022-07-23T00:03:26;31.10;45.90
3770;DHT22;1900;48.890;9.190;2022-07-23T00:05:52;31.10;45.90
3770;DHT22;1900;48.890;9.190;2022-07-23T00:08:17;31.10;45.90
3770;DHT22;1900;48.890;9.190;2022-07-23T00:10:43;31.00;45.80
3770;DHT22;1900;48.890;9.190;2022-07-23T00:13:09;31.00;45.80
3770;DHT22;1900;48.890;9.190;2022-07-23T00:15:34;31.00;45.80
3770;DHT22;1900;48.890;9.190;2022-07-23T00:18:00;31.00;45.80
3770;DHT22;1900;48.890;9.190;2022-07-23T00:20:26;31.00;45.80
3770;DHT22;1900;48.890;9.190;2022-07-23T00:22:55;30.90;45.70
3770;DHT22;1900;48.890;9.190;2022-07-23T00:25:22;30.90;45.70
3770;DHT22;1900;48.890;9.190;2022-07-23T00:27:48;30.90;45.70
3770;DHT22;1900;48.890;9.190;2022-07-23T00:30:14;30.80;46.20
3770;DHT22;1900;48.890;9.190;2022-07-23T00:32:52;30.80;45.60
3770;DHT22;1900;48.890;9.190;2022-07-23T00:35:21;30.80;45.70
3770;DHT22;1900;48.890;9.190;2022-07-23T00:37:47;30.80;45.70
3770;DHT22;1900;48.890;9.190;2022-07-23T00:40:14;30.80;45.70
3770;DHT22;1900;48.890;9.190;2022-07-23T00:42:40;30.70;45.60
3770;DHT22;1900;48.890;9.190;2022-07-23T00:45:07;30.70;45.60
3770;DHT22;1900;48.890;9.190;2022-07-23T00:47:33;30.70;45.70
3770;DHT22;1900;48.890;9.190;2022-07-23T00:49:58;30.60;45.60
3770;DHT22;1900;48.890;9.190;2022-07-23T00:52:26;30.50;45.60
3770;DHT22;1900;48.890;9.190;2022-07-23T00:54:51;30.50;45.60
3770;DHT22;1900;48.890;9.190;2022-07-23T00:57:17;30.50;45.60
3770;DHT22;1900;48.890;9.190;2022-07-23T00:59:43;30.50;45.70
3770;DHT22;1900;48.890;9.190;2022-07-23T01:02:09;30.50;45.70
3770;DHT22;1900;48.890;9.190;2022-07-23T01:04:35;30.40;45.70
3770;DHT22;1900;48.890;9.190;2022-07-23T01:07:01;30.40;45.70
3770;DHT22;1900;48.890;9.190;2022-07-23T01:09:27;30.40;45.80
3770;DHT22;1900;48.890;9.190;2022-07-23T01:11:54;30.40;46.40
3770;DHT22;1900;48.890;9.190;2022-07-23T01:14:20;30.40;45.90
3770;DHT22;1900;48.890;9.190;2022-07-23T01:16:48;30.40;45.90
3770;DHT22;1900;48.890;9.190;2022-07-23T01:19:16;30.40;45.90
3770;DHT22;1900;48.890;9.190;2022-07-23T01:21:44;30.40;46.00
3770;DHT22;1900;48.890;9.190;2022-07-23T01:24:11;30.40;46.00
3770;DHT22;1900;48.890;9.190;2022-07-23T01:26:43;30.40;46.00
3770;DHT22;1900;48.890;9.190;2022-07-23T01:29:09;30.50;46.10
3770;DHT22;1900;48.890;9.190;2022-07-23T01:31:35;30.50;46.20
3770;DHT22;1900;48.890;9.190;2022-07-23T01:34:01;30.50;46.20
3770;DHT22;1900;48.890;9.190;2022-07-23T01:36:27;30.50;46.20
3770;DHT22;1900;48.890;9.190;2022-07-23T01:38:54;30.50;46.10
3770;DHT22;1900;48.890;9.190;2022-07-23T01:41:21;30.50;46.20
3770;DHT22;1900;48.890;9.190;2022-07-23T01:43:46;30.50;46.20
3770;DHT22;1900;48.890;9.190;2022-07-23T01:46:12;30.50;46.90
3770;DHT22;1900;48.890;9.190;2022-07-23T01:48:42;30.50;46.20
3770;DHT22;1900;48.890;9.190;2022-07-23T01:51:28;30.50;46.20
3770;DHT22;1900;48.890;9.190;2022-07-23T01:54:01;30.50;46.20
3770;DHT22;1900;48.890;9.190;2022-07-23T01:56:26;30.50;46.20
3770;DHT22;1900;48.890;9.190;2022-07-23T01:58:52;30.50;46.20
3770;DHT22;1900;48.890;9.190;2022-07-23T02:01:19;30.50;46.20
3770;DHT22;1900;48.890;9.190;2022-07-23T02:03:44;30.50;46.20
3770;DHT22;1900;48.890;9.190;2022-07-23T02:06:10;30.50;46.10
3770;DHT22;1900;48.890;9.190;2022-07-23T02:08:36;30.50;46.10
3770;DHT22;1900;48.890;9.190;2022-07-23T02:11:02;30.50;46.10
3770;DHT22;1900;48.890;9.190;2022-07-23T02:13:27;30.50;46.10
3770;DHT22;1900;48.890;9.190;2022-07-23T02:15:54;30.40;46.10
3770;DHT22;1900;48.890;9.190;2022-07-23T02:18:20;30.40;46.10
3770;DHT22;1900;48.890;9.190;2022-07-23T02:20:46;30.40;46.10
3770;DHT22;1900;48.890;9.190;2022-07-23T02:23:11;30.40;46.10
3770;DHT22;1900;48.890;9.190;2022-07-23T02:25:37;30.40;46.20
3770;DHT22;1900;48.890;9.190;2022-07-23T02:28:04;30.30;46.00
3770;DHT22;1900;48.890;9.190;2022-07-23T02:30:30;30.30;46.00
3770;DHT22;1900;48.890;9.190;2022-07-23T02:32:56;30.20;45.90
3770;DHT22;1900;48.890;9.190;2022-07-23T02:35:23;30.20;46.00
3770;DHT22;1900;48.890;9.190;2022-07-23T02:37:49;30.20;46.00
3770;DHT22;1900;48.890;9.190;2022-07-23T02:40:15;30.10;46.00
3770;DHT22;1900;48.890;9.190;2022-07-23T02:42:42;30.10;46.10
3770;DHT22;1900;48.890;9.190;2022-07-23T02:45:09;30.10;46.20
3770;DHT22;1900;48.890;9.190;2022-07-23T02:47:35;30.10;46.30
3770;DHT22;1900;48.890;9.190;2022-07-23T02:50:01;30.10;46.30
3770;DHT22;1900;48.890;9.190;2022-07-23T02:52:28;30.00;46.30
3770;DHT22;1900;48.890;9.190;2022-07-23T02:54:53;30.00;46.20
3770;DHT22;1900;48.890;9.190;2022-07-23T02:57:19;30.00;46.20
3770;DHT22;1900;48.890;9.190;2022-07-23T02:59:45;29.90;46.10
3770;DHT22;1900;48.890;9.190;2022-07-23T03:02:10;29.90;46.10
3770;DHT22;1900;48.890;9.190;2022-07-23T03:04:37;29.90;46.10
3770;DHT22;1900;48.890;9.190;2022-07-23T03:07:03;29.80;46.10
3770;DHT22;1900;48.890;9.190;2022-07-23T03:09:28;29.80;46.20
3770;DHT22;1900;48.890;9.190;2022-07-23T03:11:54;29.80;46.10
3770;DHT22;1900;48.890;9.190;2022-07-23T03:14:20;29.80;46.20
3770;DHT22;1900;48.890;9.190;2022-07-23T03:16:45;29.70;46.20
3770;DHT22;1900;48.890;9.190;2022-07-23T03:19:11;29.70;46.20
3770;DHT22;1900;48.890;9.190;2022-07-23T03:21:37;29.70;46.30
3770;DHT22;1900;48.890;9.190;2022-07-23T03:24:08;29.60;46.30
3770;DHT22;1900;48.890;9.190;2022-07-23T03:26:35;29.70;46.40
3770;DHT22;1900;48.890;9.190;2022-07-23T03:29:02;29.60;46.30
3770;DHT22;1900;48.890;9.190;2022-07-23T03:31:30;29.60;46.30
3770;DHT22;1900;48.890;9.190;2022-07-23T03:33:57;29.60;46.30
3770;DHT22;1900;48.890;9.190;2022-07-23T03:36:23;29.60;46.30
3770;DHT22;1900;48.890;9.190;2022-07-23T03:38:50;29.50;46.30
3770;DHT22;1900;48.890;9.190;2022-07-23T03:41:16;29.50;46.30
3770;DHT22;1900;48.890;9.190;2022-07-23T03:43:43;29.50;46.30
3770;DHT22;1900;48.890;9.190;2022-07-23T03:46:10;29.40;46.30
3770;DHT22;1900;48.890;9.190;2022-07-23T03:48:36;29.40;46.90
3770;DHT22;1900;48.890;9.190;2022-07-23T03:51:02;29.30;46.30
3770;DHT22;1900;48.890;9.190;2022-07-23T03:53:29;29.30;46.30
3770;DHT22;1900;48.890;9.190;2022-07-23T03:55:55;29.30;46.40
3770;DHT22;1900;48.890;9.190;2022-07-23T03:58:21;29.30;46.50
3770;DHT22;1900;48.890;9.190;2022-07-23T04:00:47;29.30;46.50
3770;DHT22;1900;48.890;9.190;2022-07-23T04:03:14;29.20;46.50
3770;DHT22;1900;48.890;9.190;2022-07-23T04:05:41;29.20;46.50
3770;DHT22;1900;48.890;9.190;2022-07-23T04:08:10;29.20;46.50
3770;DHT22;1900;48.890;9.190;2022-07-23T04:10:39;29.10;46.50
3770;DHT22;1900;48.890;9.190;2022-07-23T04:13:06;29.10;46.50
3770;DHT22;1900;48.890;9.190;2022-07-23T04:15:32;29.10;46.60
3770;DHT22;1900;48.890;9.190;2022-07-23T04:17:58;29.10;46.60
3770;DHT22;1900;48.890;9.190;2022-07-23T04:20:30;29.10;46.80
3770;DHT22;1900;48.890;9.190;2022-07-23T04:22:59;29.10;46.80
3770;DHT22;1900;48.890;9.190;2022-07-23T04:25:26;29.00;46.80
3770;DHT22;1900;48.890;9.190;2022-07-23T04:27:52;29.00;46.80
3770;DHT22;1900;48.890;9.190;2022-07-23T04:30:18;29.10;46.90
3770;DHT22;1900;48.890;9.190;2022-07-23T04:32:44;29.00;46.80
3770;DHT22;1900;48.890;9.190;2022-07-23T04:35:17;29.00;46.90
3770;DHT22;1900;48.890;9.190;2022-07-23T04:37:44;29.00;47.00
3770;DHT22;1900;48.890;9.190;2022-07-23T04:40:11;29.00;47.00
3770;DHT22;1900;48.890;9.190;2022-07-23T04:42:36;29.00;47.10
3770;DHT22;1900;48.890;9.190;2022-07-23T04:45:03;29.00;47.10
3770;DHT22;1900;48.890;9.190;2022-07-23T04:47:29;29.00;47.10
3770;DHT22;1900;48.890;9.190;2022-07-23T04:49:57;29.00;47.10
3770;DHT22;1900;48.890;9.190;2022-07-23T04:52:23;29.00;47.10
3770;DHT22;1900;48.890;9.190;2022-07-23T04:54:49;29.00;47.10
3770;DHT22;1900;48.890;9.190;2022-07-23T04:57:15;29.00;47.10
3770;DHT22;1900;48.890;9.190;2022-07-23T04:59:41;29.00;47.10
3770;DHT22;1900;48.890;9.190;2022-07-23T05:02:08;29.00;47.20
3770;DHT22;1900;48.890;9.190;2022-07-23T05:04:34;29.00;47.20
3770;DHT22;1900;48.890;9.190;2022-07-23T05:07:00;29.00;47.20
3770;DHT22;1900;48.890;9.190;2022-07-23T05:09:26;28.90;47.20
3770;DHT22;1900;48.890;9.190;2022-07-23T05:11:52;29.00;47.30
3770;DHT22;1900;48.890;9.190;2022-07-23T05:14:19;28.90;47.30
3770;DHT22;1900;48.890;9.190;2022-07-23T05:16:45;29.00;47.40
3770;DHT22;1900;48.890;9.190;2022-07-23T05:19:17;29.00;47.40
3770;DHT22;1900;48.890;9.190;2022-07-23T05:21:43;28.90;47.40
3770;DHT22;1900;48.890;9.190;2022-07-23T05:24:10;28.90;47.40
3770;DHT22;1900;48.890;9.190;2022-07-23T05:26:36;29.00;47.50
3770;DHT22;1900;48.890;9.190;2022-07-23T05:29:02;29.00;47.70
3770;DHT22;1900;48.890;9.190;2022-07-23T05:31:29;29.00;47.80
3770;DHT22;1900;48.890;9.190;2022-07-23T05:33:55;29.00;47.90
3770;DHT22;1900;48.890;9.190;2022-07-23T05:36:21;29.10;48.00
3770;DHT22;1900;48.890;9.190;2022-07-23T05:38:54;29.10;48.00
3770;DHT22;1900;48.890;9.190;2022-07-23T05:41:20;29.10;48.00
3770;DHT22;1900;48.890;9.190;2022-07-23T05:43:46;29.20;48.00
3770;DHT22;1900;48.890;9.190;2022-07-23T05:46:13;29.20;48.00
3770;DHT22;1900;48.890;9.190;2022-07-23T05:48:41;29.20;48.00
3770;DHT22;1900;48.890;9.190;2022-07-23T05:51:23;29.20;48.10
3770;DHT22;1900;48.890;9.190;2022-07-23T05:53:49;29.20;48.10
3770;DHT22;1900;48.890;9.190;2022-07-23T05:56:19;29.20;48.00
3770;DHT22;1900;48.890;9.190;2022-07-23T05:58:45;29.20;48.10
3770;DHT22;1900;48.890;9.190;2022-07-23T06:01:13;29.20;48.10
3770;DHT22;1900;48.890;9.190;2022-07-23T06:04:01;29.20;48.10
3770;DHT22;1900;48.890;9.190;2022-07-23T06:06:33;29.20;48.10
3770;DHT22;1900;48.890;9.190;2022-07-23T06:08:58;29.20;48.20
3770;DHT22;1900;48.890;9.190;2022-07-23T06:11:24;29.30;48.30
3770;DHT22;1900;48.890;9.190;2022-07-23T06:13:50;29.30;48.40
3770;DHT22;1900;48.890;9.190;2022-07-23T06:16:17;29.40;48.50
3770;DHT22;1900;48.890;9.190;2022-07-23T06:18:44;29.40;48.30
3770;DHT22;1900;48.890;9.190;2022-07-23T06:21:10;29.40;48.30
3770;DHT22;1900;48.890;9.190;2022-07-23T06:23:36;29.40;48.20
3770;DHT22;1900;48.890;9.190;2022-07-23T06:26:01;29.40;48.20
3770;DHT22;1900;48.890;9.190;2022-07-23T06:28:28;29.40;48.20
3770;DHT22;1900;48.890;9.190;2022-07-23T06:30:54;29.40;48.40
3770;DHT22;1900;48.890;9.190;2022-07-23T06:33:20;29.30;48.20
3770;DHT22;1900;48.890;9.190;2022-07-23T06:35:45;29.30;48.30
3770;DHT22;1900;48.890;9.190;2022-07-23T06:38:11;29.40;48.30
3770;DHT22;1900;48.890;9.190;2022-07-23T06:40:38;29.40;48.40
3770;DHT22;1900;48.890;9.190;2022-07-23T06:43:04;29.40;48.50
3770;DHT22;1900;48.890;9.190;2022-07-23T06:45:29;29.30;48.30
3770;DHT22;1900;48.890;9.190;2022-07-23T06:47:55;29.40;48.40
3770;DHT22;1900;48.890;9.190;2022-07-23T06:50:21;29.40;48.50
3770;DHT22;1900;48.890;9.190;2022-07-23T06:52:48;29.40;48.50
3770;DHT22;1900;48.890;9.190;2022-07-23T06:55:14;29.40;48.50
3770;DHT22;1900;48.890;9.190;2022-07-23T06:57:39;29.40;48.50
3770;DHT22;1900;48.890;9.190;2022-07-23T07:00:06;29.40;48.50
3770;DHT22;1900;48.890;9.190;2022-07-23T07:02:32;29.40;48.50
3770;DHT22;1900;48.890;9.190;2022-07-23T07:04:58;29.30;48.50
3770;DHT22;1900;48.890;9.190;2022-07-23T07:07:23;29.40;48.60
3770;DHT22;1900;48.890;9.190;2022-07-23T07:09:49;29.30;48.50
3770;DHT22;1900;48.890;9.190;2022-07-23T07:12:15;29.30;48.60
3770;DHT22;1900;48.890;9.190;2022-07-23T07:14:41;29.30;48.50
3770;DHT22;1900;48.890;9.190;2022-07-23T07:17:06;29.30;48.70
3770;DHT22;1900;48.890;9.190;2022-07-23T07:19:32;29.30;48.70
3770;DHT22;1900;48.890;9.190;2022-07-23T07:21:58;29.20;48.70
3770;DHT22;1900;48.890;9.190;2022-07-23T07:24:23;29.20;48.80
3770;DHT22;1900;48.890;9.190;2022-07-23T07:26:49;29.20;48.90
3770;DHT22;1900;48.890;9.190;2022-07-23T07:29:15;29.20;49.10
3770;DHT22;1900;48.890;9.190;2022-07-23T07:31:40;29.20;49.10
3770;DHT22;1900;48.890;9.190;2022-07-23T07:34:06;29.10;49.10
3770;DHT22;1900;48.890;9.190;2022-07-23T07:36:32;29.10;49.10
3770;DHT22;1900;48.890;9.190;2022-07-23T07:38:58;29.10;49.20
3770;DHT22;1900;48.890;9.190;2022-07-23T07:41:23;29.00;49.30
3770;DHT22;1900;48.890;9.190;2022-07-23T07:43:51;29.00;49.30
3770;DHT22;1900;48.890;9.190;2022-07-23T07:46:17;29.00;49.60
3770;DHT22;1900;48.890;9.190;2022-07-23T07:48:43;29.00;49.70
3770;DHT22;1900;48.890;9.190;2022-07-23T07:51:08;29.00;49.70
3770;DHT22;1900;48.890;9.190;2022-07-23T07:53:34;28.90;49.60
3770;DHT22;1900;48.890;9.190;2022-07-23T07:56:00;28.80;49.60
3770;DHT22;1900;48.890;9.190;2022-07-23T07:58:26;28.80;49.70
3770;DHT22;1900;48.890;9.190;2022-07-23T08:00:51;28.80;50.10
3770;DHT22;1900;48.890;9.190;2022-07-23T08:03:17;28.80;49.90
3770;DHT22;1900;48.890;9.190;2022-07-23T08:05:43;28.70;50.00
3770;DHT22;1900;48.890;9.190;2022-07-23T08:08:09;28.70;49.80
3770;DHT22;1900;48.890;9.190;2022-07-23T08:10:40;28.70;49.90
3770;DHT22;1900;48.890;9.190;2022-07-23T08:13:06;28.60;49.90
3770;DHT22;1900;48.890;9.190;2022-07-23T08:15:31;28.60;49.80
3770;DHT22;1900;48.890;9.190;2022-07-23T08:17:58;28.60;49.80
3770;DHT22;1900;48.890;9.190;2022-07-23T08:20:24;28.50;49.80
3770;DHT22;1900;48.890;9.190;2022-07-23T08:23:04;28.50;49.80
3770;DHT22;1900;48.890;9.190;2022-07-23T08:25:35;28.50;50.00
3770;DHT22;1900;48.890;9.190;2022-07-23T08:28:04;28.50;49.90
3770;DHT22;1900;48.890;9.190;2022-07-23T08:30:31;28.40;50.00
3770;DHT22;1900;48.890;9.190;2022-07-23T08:35:36;28.40;50.20
3770;DHT22;1900;48.890;9.190;2022-07-23T08:38:04;28.40;50.30
3770;DHT22;1900;48.890;9.190;2022-07-23T08:40:31;28.30;50.00
3770;DHT22;1900;48.890;9.190;2022-07-23T08:42:58;28.20;50.20
3770;DHT22;1900;48.890;9.190;2022-07-23T08:45:26;28.20;50.10
3770;DHT22;1900;48.890;9.190;2022-07-23T08:47:55;28.30;50.30
3770;DHT22;1900;48.890;9.190;2022-07-23T08:50:23;28.20;50.40
3770;DHT22;1900;48.890;9.190;2022-07-23T08:52:50;28.30;50.80
3770;DHT22;1900;48.890;9.190;2022-07-23T08:55:17;28.30;50.60
3770;DHT22;1900;48.890;9.190;2022-07-23T08:57:44;28.40;50.70
3770;DHT22;1900;48.890;9.190;2022-07-23T09:00:10;28.40;50.90
3770;DHT22;1900;48.890;9.190;2022-07-23T09:02:43;28.50;51.10
3770;DHT22;1900;48.890;9.190;2022-07-23T09:05:11;28.50;51.30
3770;DHT22;1900;48.890;9.190;2022-07-23T09:07:38;28.60;51.90
3770;DHT22;1900;48.890;9.190;2022-07-23T09:10:23;28.70;51.50
3770;DHT22;1900;48.890;9.190;2022-07-23T09:12:49;28.80;51.90
3770;DHT22;1900;48.890;9.190;2022-07-23T09:15:15;28.90;51.70
3770;DHT22;1900;48.890;9.190;2022-07-23T09:17:42;29.00;51.60
3770;DHT22;1900;48.890;9.190;2022-07-23T09:20:16;29.00;51.60
3770;DHT22;1900;48.890;9.190;2022-07-23T09:22:46;29.10;51.70
3770;DHT22;1900;48.890;9.190;2022-07-23T09:25:14;29.10;51.70
3770;DHT22;1900;48.890;9.190;2022-07-23T09:30:22;29.30;51.60
3770;DHT22;1900;48.890;9.190;2022-07-23T09:35:55;29.40;51.50
3770;DHT22;1900;48.890;9.190;2022-07-23T09:38:25;29.50;52.10
3770;DHT22;1900;48.890;9.190;2022-07-23T09:41:10;29.50;51.50
3770;DHT22;1900;48.890;9.190;2022-07-23T09:43:36;29.60;51.80
3770;DHT22;1900;48.890;9.190;2022-07-23T09:46:38;29.70;51.80
3770;DHT22;1900;48.890;9.190;2022-07-23T09:49:14;29.80;52.10
3770;DHT22;1900;48.890;9.190;2022-07-23T09:51:58;29.90;52.10
3770;DHT22;1900;48.890;9.190;2022-07-23T09:54:28;30.00;52.20
3770;DHT22;1900;48.890;9.190;2022-07-23T09:56:57;30.10;52.20
3770;DHT22;1900;48.890;9.190;2022-07-23T09:59:31;30.20;52.20
3770;DHT22;1900;48.890;9.190;2022-07-23T10:01:59;30.30;52.30
3770;DHT22;1900;48.890;9.190;2022-07-23T10:04:28;30.40;52.30
3770;DHT22;1900;48.890;9.190;2022-07-23T10:07:14;30.60;52.50
3770;DHT22;1900;48.890;9.190;2022-07-23T10:10:01;30.70;52.60
3770;DHT22;1900;48.890;9.190;2022-07-23T10:12:46;30.80;52.60
3770;DHT22;1900;48.890;9.190;2022-07-23T10:15:21;30.90;52.60
3770;DHT22;1900;48.890;9.190;2022-07-23T10:17:48;31.00;52.70
3770;DHT22;1900;48.890;9.190;2022-07-23T10:20:14;31.10;52.80
3770;DHT22;1900;48.890;9.190;2022-07-23T10:22:53;31.20;52.80
3770;DHT22;1900;48.890;9.190;2022-07-23T10:25:24;31.30;52.90
3770;DHT22;1900;48.890;9.190;2022-07-23T10:36:49;31.80;53.00
3770;DHT22;1900;48.890;9.190;2022-07-23T10:39:26;31.90;52.90
3770;DHT22;1900;48.890;9.190;2022-07-23T10:42:14;32.10;53.10
3770;DHT22;1900;48.890;9.190;2022-07-23T10:44:43;32.20;53.10
3770;DHT22;1900;48.890;9.190;2022-07-23T10:47:10;32.30;53.10
3770;DHT22;1900;48.890;9.190;2022-07-23T10:49:36;32.40;53.10
3770;DHT22;1900;48.890;9.190;2022-07-23T10:54:45;32.60;53.00
3770;DHT22;1900;48.890;9.190;2022-07-23T10:57:12;32.70;53.00
3770;DHT22;1900;48.890;9.190;2022-07-23T11:02:28;32.90;52.70
3770;DHT22;1900;48.890;9.190;2022-07-23T11:04:59;32.90;52.60
3770;DHT22;1900;48.890;9.190;2022-07-23T11:07:25;33.00;52.50
3770;DHT22;1900;48.890;9.190;2022-07-23T11:09:51;33.10;52.60
3770;DHT22;1900;48.890;9.190;2022-07-23T11:17:29;33.40;52.60
3770;DHT22;1900;48.890;9.190;2022-07-23T11:25:28;33.60;52.50
3770;DHT22;1900;48.890;9.190;2022-07-23T11:27:54;33.70;52.40
3770;DHT22;1900;48.890;9.190;2022-07-23T11:32:53;33.90;52.20
3770;DHT22;1900;48.890;9.190;2022-07-23T11:35:24;34.00;52.20
3770;DHT22;1900;48.890;9.190;2022-07-23T11:37:52;34.00;52.10
3770;DHT22;1900;48.890;9.190;2022-07-23T11:40:20;34.10;52.20
3770;DHT22;1900;48.890;9.190;2022-07-23T11:43:04;34.20;52.20
3770;DHT22;1900;48.890;9.190;2022-07-23T11:48:06;34.30;52.00
3770;DHT22;1900;48.890;9.190;2022-07-23T11:50:32;34.30;51.90
3770;DHT22;1900;48.890;9.190;2022-07-23T11:52:58;34.40;51.80
3770;DHT22;1900;48.890;9.190;2022-07-23T11:55:24;34.50;51.70
3770;DHT22;1900;48.890;9.190;2022-07-23T11:57:51;34.50;51.80
3770;DHT22;1900;48.890;9.190;2022-07-23T12:00:21;34.60;51.70
3770;DHT22;1900;48.890;9.190;2022-07-23T12:02:54;34.70;51.70
3770;DHT22;1900;48.890;9.190;2022-07-23T12:05:26;34.70;51.60
3770;DHT22;1900;48.890;9.190;2022-07-23T12:07:53;34.80;51.70
3770;DHT22;1900;48.890;9.190;2022-07-23T12:10:25;34.80;51.80
3770;DHT22;1900;48.890;9.190;2022-07-23T12:15:25;35.00;51.80
3770;DHT22;1900;48.890;9.190;2022-07-23T12:17:53;35.00;51.90
3770;DHT22;1900;48.890;9.190;2022-07-23T12:20:28;35.10;51.90
3770;DHT22;1900;48.890;9.190;2022-07-23T12:22:59;35.30;51.90
3770;DHT22;1900;48.890;9.190;2022-07-23T12:25:30;35.30;52.00
3770;DHT22;1900;48.890;9.190;2022-07-23T12:28:00;35.40;52.10
3770;DHT22;1900;48.890;9.190;2022-07-23T12:33:05;35.60;52.20
3770;DHT22;1900;48.890;9.190;2022-07-23T12:35:43;35.70;52.20
3770;DHT22;1900;48.890;9.190;2022-07-23T12:38:20;35.80;52.00
3770;DHT22;1900;48.890;9.190;2022-07-23T12:40:57;35.90;51.50
3770;DHT22;1900;48.890;9.190;2022-07-23T12:43:35;35.90;51.20
3770;DHT22;1900;48.890;9.190;2022-07-23T12:46:09;35.90;51.20
3770;DHT22;1900;48.890;9.190;2022-07-23T12:51:12;35.90;51.40
3770;DHT22;1900;48.890;9.190;2022-07-23T12:53:42;36.00;51.30
3770;DHT22;1900;48.890;9.190;2022-07-23T12:56:22;36.00;51.30
3770;DHT22;1900;48.890;9.190;2022-07-23T12:59:13;36.00;50.80
3770;DHT22;1900;48.890;9.190;2022-07-23T13:01:53;36.00;50.80
3770;DHT22;1900;48.890;9.190;2022-07-23T13:04:23;35.90;50.00
3770;DHT22;1900;48.890;9.190;2022-07-23T13:06:50;35.90;50.20
3770;DHT22;1900;48.890;9.190;2022-07-23T13:09:26;35.80;50.00
3770;DHT22;1900;48.890;9.190;2022-07-23T13:11:54;35.80;49.60
3770;DHT22;1900;48.890;9.190;2022-07-23T13:14:21;35.70;49.70
3770;DHT22;1900;48.890;9.190;2022-07-23T13:16:48;35.70;49.90
3770;DHT22;1900;48.890;9.190;2022-07-23T13:19:14;35.60;50.10
3770;DHT22;1900;48.890;9.190;2022-07-23T13:21:41;35.70;50.20
3770;DHT22;1900;48.890;9.190;2022-07-23T13:24:10;35.60;50.10
3770;DHT22;1900;48.890;9.190;2022-07-23T13:26:37;35.70;50.10
3770;DHT22;1900;48.890;9.190;2022-07-23T13:29:06;35.70;50.60
3770;DHT22;1900;48.890;9.190;2022-07-23T13:31:32;35.70;49.70
3770;DHT22;1900;48.890;9.190;2022-07-23T13:33:58;35.70;49.60
3770;DHT22;1900;48.890;9.190;2022-07-23T13:36:24;35.60;49.80
3770;DHT22;1900;48.890;9.190;2022-07-23T13:38:49;35.60;50.00
3770;DHT22;1900;48.890;9.190;2022-07-23T13:41:17;35.70;50.10
3770;DHT22;1900;48.890;9.190;2022-07-23T13:43:43;35.70;50.20
3770;DHT22;1900;48.890;9.190;2022-07-23T13:46:09;35.80;50.00
3770;DHT22;1900;48.890;9.190;2022-07-23T13:48:35;35.90;49.90
3770;DHT22;1900;48.890;9.190;2022-07-23T13:51:01;35.90;49.90
3770;DHT22;1900;48.890;9.190;2022-07-23T13:53:26;35.90;49.60
3770;DHT22;1900;48.890;9.190;2022-07-23T13:55:53;36.00;49.60
3770;DHT22;1900;48.890;9.190;2022-07-23T13:58:20;36.00;49.80
3770;DHT22;1900;48.890;9.190;2022-07-23T14:00:49;36.10;49.60
3770;DHT22;1900;48.890;9.190;2022-07-23T14:03:16;36.20;49.60
3770;DHT22;1900;48.890;9.190;2022-07-23T14:05:41;36.20;49.50
3770;DHT22;1900;48.890;9.190;2022-07-23T14:08:07;36.30;49.80
3770;DHT22;1900;48.890;9.190;2022-07-23T14:10:33;36.40;50.10
3770;DHT22;1900;48.890;9.190;2022-07-23T14:12:59;36.50;50.20
3770;DHT22;1900;48.890;9.190;2022-07-23T14:15:26;36.60;49.80
3770;DHT22;1900;48.890;9.190;2022-07-23T14:17:53;36.70;49.40
3770;DHT22;1900;48.890;9.190;2022-07-23T14:20:19;36.80;49.50
3770;DHT22;1900;48.890;9.190;2022-07-23T14:22:45;36.90;48.90
3770;DHT22;1900;48.890;9.190;2022-07-23T14:25:11;36.90;48.50
3770;DHT22;1900;48.890;9.190;2022-07-23T14:27:37;37.00;48.30
3770;DHT22;1900;48.890;9.190;2022-07-23T14:30:04;37.10;48.30
3770;DHT22;1900;48.890;9.190;2022-07-23T14:32:31;37.10;48.90
3770;DHT22;1900;48.890;9.190;2022-07-23T14:34:56;37.20;49.10
3770;DHT22;1900;48.890;9.190;2022-07-23T14:37:22;37.30;49.00
3770;DHT22;1900;48.890;9.190;2022-07-23T14:39:48;37.30;49.40
3770;DHT22;1900;48.890;9.190;2022-07-23T14:42:15;37.40;49.00
3770;DHT22;1900;48.890;9.190;2022-07-23T14:44:40;37.50;48.70
3770;DHT22;1900;48.890;9.190;2022-07-23T14:47:08;37.60;48.80
3770;DHT22;1900;48.890;9.190;2022-07-23T14:49:34;37.70;48.70
3770;DHT22;1900;48.890;9.190;2022-07-23T14:52:00;37.80;49.20
3770;DHT22;1900;48.890;9.190;2022-07-23T14:54:27;37.80;48.50
3770;DHT22;1900;48.890;9.190;2022-07-23T14:56:54;37.90;48.30
3770;DHT22;1900;48.890;9.190;2022-07-23T14:59:20;37.90;47.90
3770;DHT22;1900;48.890;9.190;2022-07-23T15:01:45;37.90;48.00
3770;DHT22;1900;48.890;9.190;2022-07-23T15:04:11;38.00;48.20
3770;DHT22;1900;48.890;9.190;2022-07-23T15:06:37;37.90;48.20
3770;DHT22;1900;48.890;9.190;2022-07-23T15:09:05;38.00;47.80
3770;DHT22;1900;48.890;9.190;2022-07-23T15:11:31;37.90;47.60
3770;DHT22;1900;48.890;9.190;2022-07-23T15:14:03;37.90;47.70
3770;DHT22;1900;48.890;9.190;2022-07-23T15:16:29;37.80;47.40
3770;DHT22;1900;48.890;9.190;2022-07-23T15:18:55;37.80;46.80
3770;DHT22;1900;48.890;9.190;2022-07-23T15:21:21;37.70;47.00
3770;DHT22;1900;48.890;9.190;2022-07-23T15:23:47;37.60;47.40
3770;DHT22;1900;48.890;9.190;2022-07-23T15:26:12;37.60;47.50
3770;DHT22;1900;48.890;9.190;2022-07-23T15:28:41;37.60;47.60
3770;DHT22;1900;48.890;9.190;2022-07-23T15:31:07;37.60;47.60
3770;DHT22;1900;48.890;9.190;2022-07-23T15:33:33;37.60;47.40
3770;DHT22;1900;48.890;9.190;2022-07-23T15:35:58;37.50;47.30
3770;DHT22;1900;48.890;9.190;2022-07-23T15:38:25;37.50;47.40
3770;DHT22;1900;48.890;9.190;2022-07-23T15:40:55;37.40;47.20
3770;DHT22;1900;48.890;9.190;2022-07-23T15:43:24;37.40;47.30
3770;DHT22;1900;48.890;9.190;2022-07-23T15:45:51;37.30;47.10
3770;DHT22;1900;48.890;9.190;2022-07-23T15:48:18;37.30;47.20
3770;DHT22;1900;48.890;9.190;2022-07-23T15:50:45;37.20;47.20
3770;DHT22;1900;48.890;9.190;2022-07-23T15:53:11;37.20;47.30
3770;DHT22;1900;48.890;9.190;2022-07-23T15:55:38;37.20;47.30
3770;DHT22;1900;48.890;9.190;2022-07-23T15:58:05;37.10;47.20
3770;DHT22;1900;48.890;9.190;2022-07-23T16:00:31;37.10;47.00
3770;DHT22;1900;48.890;9.190;2022-07-23T16:02:57;37.10;47.10
3770;DHT22;1900;48.890;9.190;2022-07-23T16:05:22;37.00;47.00
3770;DHT22;1900;48.890;9.190;2022-07-23T16:07:48;37.00;46.90
3770;DHT22;1900;48.890;9.190;2022-07-23T16:10:14;36.90;46.80
3770;DHT22;1900;48.890;9.190;2022-07-23T16:12:40;36.80;46.80
3770;DHT22;1900;48.890;9.190;2022-07-23T16:15:06;36.80;46.50
3770;DHT22;1900;48.890;9.190;2022-07-23T16:17:31;36.70;46.40
3770;DHT22;1900;48.890;9.190;2022-07-23T16:19:57;36.60;46.30
3770;DHT22;1900;48.890;9.190;2022-07-23T16:22:23;36.50;46.30
3770;DHT22;1900;48.890;9.190;2022-07-23T16:24:49;36.40;46.30
3770;DHT22;1900;48.890;9.190;2022-07-23T16:27:15;36.30;46.10
3770;DHT22;1900;48.890;9.190;2022-07-23T16:29:41;36.20;46.00
3770;DHT22;1900;48.890;9.190;2022-07-23T16:32:07;36.00;46.00
3770;DHT22;1900;48.890;9.190;2022-07-23T16:34:33;36.00;46.10
3770;DHT22;1900;48.890;9.190;2022-07-23T16:36:59;35.90;46.20
3770;DHT22;1900;48.890;9.190;2022-07-23T16:39:25;35.80;46.30
3770;DHT22;1900;48.890;9.190;2022-07-23T16:41:50;35.70;45.80
3770;DHT22;1900;48.890;9.190;2022-07-23T16:44:16;35.60;46.30
3770;DHT22;1900;48.890;9.190;2022-07-23T16:46:42;35.50;46.20
3770;DHT22;1900;48.890;9.190;2022-07-23T16:49:09;35.40;46.30
3770;DHT22;1900;48.890;9.190;2022-07-23T16:51:35;35.40;46.30